Latest Weather Observations for Beaudesert AWS

IDQ60801

Issued at 6:35 am EST Friday 21 November 2014 (issued every 30 minutes, with the page automatically refreshed every 10 minutes)

About weather observations | Map of weather stations | Latest weather observations for QLD | Other Formats
Station Details ID: 040983 Name: BEAUDESERT DRUMLEY STREET Lat: -27.97 Lon: 152.99 Height: 47.81 m
Data from the previous 72 hours. | See also: Recent months at Beaudesert AWS
Date/Time
EST
Temp
°C
App
Temp
°C
Dew
Point
Rel
Hum
%
Delta-T
°C
Wind Press
QNH
hPa
Press
MSL
hPa
Rain
since 9 am
mm
Dir
 
Spd
km/h
Gust
km/h
Spd
kts
Gust
kts
21/06:30am 24.3 27.0 20.2 78 2.7 N 6 9 3 5 1016.0 1015.8 0.0
21/06:00am 23.4 26.5 20.3 83 2.0 N 4 7 2 4 1015.7 1015.5 0.0
21/05:30am 22.7 26.1 20.2 86 1.6 NE 2 7 1 4 1015.4 1015.2 0.0
21/05:00am 21.8 24.2 19.7 88 1.3 ENE 6 9 3 5 1014.8 1014.6 0.0
21/04:30am 21.6 24.5 19.0 85 1.6 SSE 2 2 1 1 1015.0 1014.8 0.0
21/04:00am 22.5 25.3 19.7 84 1.8 NE 4 6 2 3 1014.9 1014.7 0.0
21/03:30am 22.9 25.7 19.7 82 2.1 N 4 7 2 4 1014.6 1014.4 0.0
21/03:00am 23.3 26.0 20.2 83 2.0 N 6 11 3 6 1014.5 1014.3 0.0
21/02:30am 23.3 26.0 20.2 83 2.0 N 6 9 3 5 1014.6 1014.4 0.0
21/02:00am 23.4 26.4 20.0 81 2.2 NW 4 6 2 3 1015.1 1014.9 0.0
21/01:30am 23.6 27.0 20.1 81 2.3 NW 2 4 1 2 1015.1 1014.9 0.0
21/01:00am 23.7 27.4 20.0 80 2.4 CALM 0 4 0 2 1015.1 1014.9 0.0
21/12:30am 23.8 26.8 20.1 80 2.4 NNW 4 7 2 4 1015.5 1015.3 0.0
21/12:00am 23.7 27.0 20.0 80 2.4 NNW 2 4 1 2 1015.9 1015.7 0.0
 
Date/Time
EST
Temp
°C
App
Temp
°C
Dew
Point
Rel
Hum
%
Delta-T
°C
Wind Press
QNH
hPa
Press
MSL
hPa
Rain
since 9 am
mm
Dir
 
Spd
km/h
Gust
km/h
Spd
kts
Gust
kts
20/11:30pm 24.0 27.4 20.1 79 2.5 NNE 2 6 1 3 1016.1 1015.9 0.0
20/11:00pm 24.2 26.8 20.1 78 2.7 NNE 6 9 3 5 1016.5 1016.3 0.0
20/10:30pm 24.2 27.1 19.9 77 2.8 N 4 9 2 5 1016.9 1016.7 0.0
20/10:00pm 24.2 26.8 20.1 78 2.7 NNE 6 13 3 7 1017.0 1016.8 0.0
20/09:30pm 24.0 26.9 19.9 78 2.6 NE 4 6 2 3 1016.9 1016.7 0.0
20/09:00pm 23.9 27.0 19.6 77 2.8 NNE 2 6 1 3 1016.7 1016.5 0.0
20/08:30pm 24.0 26.3 19.5 76 2.9 NNE 6 11 3 6 1016.4 1016.2 0.0
20/08:00pm 24.3 25.6 19.4 74 3.1 NNE 11 19 6 10 1015.9 1015.7 0.0
20/07:30pm 24.6 26.3 19.4 73 3.3 NNE 9 17 5 9 1015.8 1015.6 0.0
20/07:00pm 25.0 27.3 19.8 73 3.4 NNE 7 13 4 7 1015.5 1015.3 0.0
20/06:30pm 25.4 26.8 19.5 70 3.8 NNE 11 20 6 11 1015.0 1014.8 0.0
20/06:00pm 26.0 27.0 19.4 67 4.3 NNE 13 24 7 13 1014.4 1014.2 0.0
20/05:30pm 26.6 26.9 18.7 62 5.1 NE 15 24 8 13 1014.0 1013.8 0.0
20/05:00pm 27.6 28.4 19.1 59 5.5 NNE 13 22 7 12 1013.7 1013.5 0.0
20/04:30pm 28.9 29.4 18.4 53 6.7 NNE 13 24 7 13 1013.5 1013.3 0.0
20/04:00pm 29.0 28.5 18.7 53 6.6 NE 19 32 10 17 1013.5 1013.3 0.0
20/03:30pm 28.7 28.7 18.2 53 6.7 NE 15 24 8 13 1013.5 1013.3 0.0
20/03:00pm 29.8 29.2 17.6 48 7.8 NE 17 26 9 14 1013.7 1013.5 0.0
20/02:30pm 29.6 29.7 17.4 47 7.7 NNE 13 19 7 10 1013.9 1013.7 0.0
20/02:00pm 30.3 30.8 17.4 46 8.2 N 11 24 6 13 1014.2 1014.0 0.0
20/01:30pm 30.1 30.4 16.9 45 8.3 N 11 17 6 9 1014.9 1014.7 0.0
20/01:00pm 29.6 29.8 16.8 46 8.0 N 11 19 6 10 1015.4 1015.2 0.0
20/12:30pm 28.4 27.9 17.0 50 7.2 N 15 22 8 12 1015.8 1015.6 0.0
20/12:00pm 29.5 29.7 17.7 49 7.5 NE 13 20 7 11 1016.1 1015.9 0.0
20/11:30am 28.0 27.9 17.8 54 6.5 N 15 20 8 11 1016.8 1016.6 0.0
20/11:00am 28.4 29.1 17.9 53 6.7 NNE 11 20 6 11 1017.3 1017.1 0.0
20/10:30am 27.1 27.5 17.3 55 6.2 NNE 11 20 6 11 1017.9 1017.7 0.0
20/10:00am 26.3 27.0 17.1 57 5.7 N 9 19 5 10 1018.2 1018.0 0.0
20/09:30am 26.6 27.1 17.4 57 5.8 N 11 20 6 11 1018.3 1018.1 0.0
20/09:00am 26.1 26.5 17.2 58 5.5 N 11 20 6 11 1018.2 1018.0 8.4
20/08:30am 25.0 27.4 18.7 68 4.0 NW 4 7 2 4 1018.3 1018.1 8.4
20/08:00am 24.9 27.4 19.1 70 3.7 WNW 4 7 2 4 1018.3 1018.1 8.4
20/07:30am 23.9 26.7 19.6 77 2.8 NW 4 7 2 4 1018.0 1017.8 8.4
20/07:00am 22.5 25.2 18.7 79 2.4 NNW 2 4 1 2 1018.3 1018.1 8.4
20/06:30am 21.4 24.0 18.4 83 1.9 NW 2 4 1 2 1018.1 1017.9 8.4
20/06:00am 19.9 22.6 17.7 87 1.4 CALM 0 0 0 0 1017.8 1017.6 8.4
20/05:30am 19.7 22.6 18.2 91 0.9 CALM 0 0 0 0 1017.5 1017.3 8.4
20/05:00am 18.0 19.8 16.5 91 0.9 S 2 4 1 2 1017.3 1017.1 8.4
20/04:30am 18.5 21.0 17.2 92 0.8 CALM 0 0 0 0 1016.8 1016.6 8.4
20/04:00am 18.4 20.3 16.7 90 1.0 WNW 2 4 1 2 1016.3 1016.1 8.4
20/03:30am 18.6 21.0 16.9 90 1.0 CALM 0 0 0 0 1016.3 1016.1 8.4
20/03:00am 19.3 21.8 17.3 88 1.2 CALM 0 2 0 1 1016.2 1016.0 8.4
20/02:30am 19.3 21.1 17.4 89 1.2 ESE 4 4 2 2 1016.1 1015.9 8.4
20/02:00am 19.4 21.9 17.2 87 1.3 CALM 0 0 0 0 1016.1 1015.9 8.4
20/01:30am 20.2 22.8 17.4 84 1.7 CALM 0 0 0 0 1016.3 1016.1 8.4
20/01:00am 20.9 22.5 17.9 83 1.9 ENE 6 7 3 4 1016.6 1016.4 8.4
20/12:30am 21.4 23.5 18.0 81 2.1 NE 4 6 2 3 1017.0 1016.8 8.4
20/12:00am 21.5 23.1 17.9 80 2.2 ENE 6 9 3 5 1017.3 1017.1 8.4
 
Date/Time
EST
Temp
°C
App
Temp
°C
Dew
Point
Rel
Hum
%
Delta-T
°C
Wind Press
QNH
hPa
Press
MSL
hPa
Rain
since 9 am
mm
Dir
 
Spd
km/h
Gust
km/h
Spd
kts
Gust
kts
19/11:30pm 21.9 24.2 18.5 81 2.1 N 4 9 2 5 1017.2 1017.0 8.4
19/11:00pm 22.2 23.7 18.8 81 2.1 N 9 13 5 7 1017.3 1017.1 8.2
19/10:30pm 22.9 24.7 19.5 81 2.2 N 9 17 5 9 1017.7 1017.5 8.2
19/10:00pm 23.3 25.1 20.4 84 1.9 N 11 17 6 9 1017.6 1017.4 8.2
19/09:30pm 23.0 25.8 20.5 86 1.6 N 6 11 3 6 1017.1 1016.9 8.2
19/09:00pm 22.8 25.5 20.3 86 1.6 N 6 9 3 5 1017.5 1017.3 8.2
19/08:30pm 22.8 25.2 20.0 84 1.8 W 7 9 4 5 1017.7 1017.5 8.2
19/08:00pm 22.8 25.2 19.6 82 2.0 ENE 6 9 3 5 1016.5 1016.3 8.2
19/07:30pm 22.7 25.3 19.3 81 2.2 SE 4 7 2 4 1016.8 1016.6 8.0
19/07:00pm 22.4 24.4 19.2 82 2.0 S 7 11 4 6 1017.1 1016.9 8.0
19/06:30pm 22.5 25.5 20.0 86 1.6 SW 4 4 2 2 1016.4 1016.2 8.0
19/06:00pm 22.8 25.8 20.0 84 1.8 ENE 4 9 2 5 1015.9 1015.7 8.0
19/05:30pm 22.7 24.7 19.9 84 1.8 ESE 9 17 5 9 1015.0 1014.8 8.0
19/05:00pm 22.3 24.8 20.2 88 1.4 SSE 7 9 4 5 1015.3 1015.1 7.8
19/04:30pm 23.2 25.9 20.7 86 1.6 SE 7 15 4 8 1015.1 1014.9 7.2
19/04:00pm 23.2 24.9 20.9 87 1.5 ESE 13 24 7 13 1014.8 1014.6 6.6
19/03:30pm 23.1 25.8 21.4 90 1.1 SSE 9 17 5 9 1015.0 1014.8 5.4
19/03:00pm 22.9 25.2 20.6 87 1.5 S 9 22 5 12 1015.0 1014.8 3.0
19/02:30pm 23.1 20.1 17.8 72 3.3 E 30 48 16 26 1014.2 1014.0 0.0
19/02:03pm 26.5 23.6 18.9 63 4.9 ESE 32 52 17 28 1013.7 1013.5 0.0
19/02:00pm 26.4 23.3 18.3 61 5.1 ESE 32 50 17 27 1013.8 1013.6 0.0
19/01:51pm 27.4 23.4 18.4 58 5.7 ESE 37 46 20 25 1014.0 1013.8 0.0
19/01:30pm 30.8 30.2 17.5 45 8.5 ENE 17 28 9 15 1014.4 1014.2 0.0
19/01:00pm 31.1 30.2 17.8 45 8.5 NE 19 30 10 16 1014.7 1014.5 0.0
19/12:30pm 31.0 31.6 19.4 50 7.6 ENE 15 24 8 13 1015.2 1015.0 0.0
19/12:00pm 31.3 31.0 18.3 46 8.4 ENE 17 32 9 17 1015.9 1015.7 0.0
19/11:30am 31.7 31.9 19.3 47 8.1 ENE 17 28 9 15 1016.2 1016.0 0.0
19/11:00am 31.9 32.8 19.2 47 8.3 ENE 13 24 7 13 1016.5 1016.3 0.0
19/10:30am 31.3 31.4 18.3 46 8.4 ENE 15 30 8 16 1016.9 1016.7 0.0
19/10:00am 30.3 30.8 19.3 51 7.2 E 15 22 8 12 1017.2 1017.0 0.0
19/09:30am 29.1 30.4 18.5 52 6.8 ENE 9 15 5 8 1017.5 1017.3 0.0
19/09:00am 28.9 29.9 18.7 54 6.6 ESE 11 19 6 10 1017.7 1017.5 0.0
19/08:30am 28.1 29.6 18.8 57 6.0 E 9 15 5 8 1017.7 1017.5 0.0
19/08:00am 28.1 29.6 18.8 57 6.0 E 9 17 5 9 1017.6 1017.4 0.0
19/07:30am 26.9 29.1 19.5 64 4.8 SSE 7 15 4 8 1017.4 1017.2 0.0
19/07:00am 25.8 28.6 19.7 69 3.9 S 4 9 2 5 1017.5 1017.3 0.0
19/06:30am 25.8 28.7 20.6 73 3.4 S 6 7 3 4 1017.3 1017.1 0.0
19/06:00am 23.4 26.8 20.2 82 2.1 SW 2 4 1 2 1017.0 1016.8 0.0
19/05:30am 22.6 26.3 19.9 85 1.7 CALM 0 0 0 0 1016.4 1016.2 0.0
19/05:00am 22.4 25.5 19.6 84 1.8 SE 2 4 1 2 1015.9 1015.7 0.0
19/04:30am 22.6 26.0 19.4 82 2.0 CALM 0 0 0 0 1015.6 1015.4 0.0
19/04:00am 23.6 27.4 20.1 81 2.3 CALM 0 0 0 0 1015.5 1015.3 0.0
19/03:30am 23.6 27.0 20.1 81 2.3 ESE 2 9 1 5 1015.1 1014.9 0.0
19/03:00am 23.4 26.9 19.5 79 2.5 CALM 0 0 0 0 1014.7 1014.5 0.0
19/02:30am 24.2 26.8 20.1 78 2.7 ESE 6 9 3 5 1014.9 1014.7 0.0
19/02:00am 23.4 26.5 19.5 79 2.5 SE 2 7 1 4 1015.3 1015.1 0.0
19/01:30am 24.2 28.0 20.1 78 2.7 CALM 0 0 0 0 1015.6 1015.4 0.0
19/01:00am 24.3 27.5 20.4 79 2.5 SSE 4 6 2 3 1015.6 1015.4 0.0
19/12:30am 23.9 27.7 20.2 80 2.4 CALM 0 2 0 1 1015.8 1015.6 0.0
19/12:00am 23.7 26.9 20.4 82 2.1 SSE 4 7 2 4 1016.1 1015.9 0.0
 
Date/Time
EST
Temp
°C
App
Temp
°C
Dew
Point
Rel
Hum
%
Delta-T
°C
Wind Press
QNH
hPa
Press
MSL
hPa
Rain
since 9 am
mm
Dir
 
Spd
km/h
Gust
km/h
Spd
kts
Gust
kts
18/11:30pm 23.3 26.3 20.1 82 2.1 ESE 4 7 2 4 1016.3 1016.1 0.0
18/11:00pm 23.7 26.9 19.8 79 2.5 ENE 2 4 1 2 1016.4 1016.2 0.0
18/10:30pm 23.7 27.0 20.0 80 2.4 ESE 2 6 1 3 1016.3 1016.1 0.0
18/10:00pm 24.3 27.8 19.6 75 3.0 CALM 0 0 0 0 1016.6 1016.4 0.0
18/09:30pm 25.2 28.6 20.2 74 3.3 E 2 4 1 2 1016.0 1015.8 0.0
18/09:00pm 25.2 28.3 20.2 74 3.3 ESE 4 6 2 3 1016.0 1015.8 0.0
18/08:30pm 25.3 27.8 20.3 74 3.3 E 7 13 4 7 1015.8 1015.6 0.0
18/08:00pm 25.2 27.8 20.5 75 3.1 ENE 7 13 4 7 1015.6 1015.4 0.0
18/07:30pm 25.1 28.0 20.6 76 2.9 ENE 6 11 3 6 1015.4 1015.2 0.0
18/07:00pm 25.4 27.7 20.6 75 3.1 NE 9 19 5 10 1014.9 1014.7 0.0
18/06:30pm 25.9 27.8 20.5 72 3.5 ENE 11 19 6 10 1014.1 1013.9 0.0
18/06:00pm 26.3 27.4 20.4 70 3.9 ENE 15 22 8 12 1013.5 1013.3 0.0
18/05:30pm 27.3 28.2 20.1 64 4.7 ENE 15 26 8 14 1012.7 1012.5 0.0
18/05:00pm 28.7 29.9 19.9 59 5.8 ENE 13 24 7 13 1011.9 1011.7 0.0
18/04:30pm 29.2 29.6 19.8 57 6.2 ENE 17 24 9 13 1011.8 1011.6 0.0
18/04:00pm 30.0 30.6 19.4 53 6.9 NNE 15 26 8 14 1011.5 1011.3 0.0
18/03:30pm 30.0 30.4 19.1 52 7.1 NE 15 24 8 13 1011.7 1011.5 0.0
18/03:00pm 30.5 30.9 18.9 50 7.5 NE 15 26 8 14 1012.0 1011.8 0.0
18/02:30pm 30.6 31.3 18.0 47 8.1 NE 11 20 6 11 1012.0 1011.8 0.0
18/02:00pm 31.4 31.7 18.7 46 8.3 NE 15 26 8 14 1012.5 1012.3 0.0
18/01:30pm 30.7 31.4 19.7 52 7.2 NNE 15 24 8 13 1013.2 1013.0 0.0
18/01:00pm 30.7 31.3 19.4 51 7.4 NNE 15 26 8 14 1013.7 1013.5 0.0
18/12:30pm 29.6 30.9 19.3 54 6.7 N 11 19 6 10 1014.3 1014.1 0.0
18/12:00pm 29.2 30.9 18.6 52 6.8 NE 7 13 4 7 1014.6 1014.4 0.0
18/11:30am 28.5 30.0 18.9 56 6.2 N 9 15 5 8 1015.2 1015.0 0.0
18/11:00am 28.0 29.7 18.4 56 6.1 N 7 17 4 9 1015.6 1015.4 0.0
18/10:30am 28.0 29.7 18.1 55 6.3 NNE 6 11 3 6 1015.9 1015.7 0.0
18/10:00am 27.5 29.8 18.5 58 5.8 ENE 4 9 2 5 1016.1 1015.9 0.0
18/09:30am 27.3 29.5 18.3 58 5.7 E 4 9 2 5 1016.3 1016.1 0.0
18/09:00am 27.1 28.7 17.8 56 5.9 E 6 9 3 5 1016.4 1016.2 0.0
18/08:30am 25.9 27.6 18.1 62 4.9 NW 6 7 3 4 1016.5 1016.3 0.0
18/08:00am 25.5 27.5 17.9 63 4.8 WSW 4 7 2 4 1016.8 1016.6 0.0
18/07:30am 24.8 26.9 18.0 66 4.3 SE 4 7 2 4 1016.8 1016.6 0.0
18/07:00am 24.1 26.1 17.8 68 3.9 SE 4 7 2 4 1016.7 1016.5 0.0

Other Formats:

Comma delimited format used in spreadsheet applications
http://www.bom.gov.au/fwo/IDQ60801/IDQ60801.95575.axf

JavaScript Object Notation format (JSON) in row-major order
http://www.bom.gov.au/fwo/IDQ60801/IDQ60801.95575.json